createdAt,value
2017-08-08T00:00:41.500Z,71.50
2017-08-08T00:03:09.019Z,70.80
2017-08-08T00:05:37.332Z,73.40
2017-08-08T00:08:05.207Z,72.50
2017-08-08T00:10:32.755Z,72.10
2017-08-08T00:13:00.276Z,72.30
2017-08-08T00:15:27.780Z,72.70
2017-08-08T00:17:55.894Z,72.90
2017-08-08T00:20:23.394Z,72.50
2017-08-08T00:22:50.906Z,72.70
2017-08-08T00:25:18.410Z,72.10
2017-08-08T00:27:46.464Z,72.00
2017-08-08T00:30:14.774Z,73.50
2017-08-08T00:32:42.318Z,73.50
2017-08-08T00:35:09.847Z,72.80
2017-08-08T00:37:38.114Z,72.60
2017-08-08T00:40:05.639Z,72.60
2017-08-08T00:42:33.166Z,73.00
2017-08-08T00:45:00.735Z,74.10
2017-08-08T00:47:28.243Z,73.80
2017-08-08T00:49:55.771Z,73.30
2017-08-08T00:52:23.306Z,72.80
2017-08-08T00:54:50.811Z,73.00
2017-08-08T00:57:18.331Z,73.50
2017-08-08T00:59:45.834Z,73.90
2017-08-08T01:02:13.350Z,74.90
2017-08-08T01:04:40.851Z,74.10
2017-08-08T01:07:09.171Z,74.30
2017-08-08T01:09:36.679Z,74.30
2017-08-08T01:12:04.212Z,74.40
2017-08-08T01:14:31.728Z,74.50
2017-08-08T01:16:59.994Z,75.20
2017-08-08T01:19:28.281Z,75.20
2017-08-08T01:21:56.552Z,75.70
2017-08-08T01:24:24.843Z,75.80
2017-08-08T01:26:53.124Z,75.70
2017-08-08T01:29:20.679Z,75.50
2017-08-08T01:31:48.178Z,76.00
2017-08-08T01:34:15.699Z,75.80
2017-08-08T01:36:43.259Z,75.20
2017-08-08T01:39:10.779Z,76.40
2017-08-08T01:41:38.370Z,75.60
2017-08-08T01:44:05.900Z,76.00
2017-08-08T01:46:34.180Z,75.50
2017-08-08T01:49:02.491Z,75.70
2017-08-08T01:51:30.011Z,75.60
2017-08-08T01:53:59.116Z,76.20
2017-08-08T01:56:27.411Z,76.00
2017-08-08T01:58:54.955Z,75.90
2017-08-08T02:01:24.376Z,76.90
2017-08-08T02:03:51.874Z,76.90
2017-08-08T02:06:19.388Z,77.00
2017-08-08T02:08:46.887Z,77.00
2017-08-08T02:11:14.511Z,77.50
2017-08-08T02:13:42.326Z,77.60
2017-08-08T02:16:09.856Z,77.40
2017-08-08T02:18:37.358Z,77.60
2017-08-08T02:21:04.863Z,78.30
2017-08-08T02:23:32.379Z,77.40
2017-08-08T02:26:00.652Z,77.90
2017-08-08T02:28:28.960Z,78.60
2017-08-08T02:30:56.517Z,77.70
2017-08-08T02:33:24.387Z,78.10
2017-08-08T02:35:51.887Z,78.50
2017-08-08T02:38:19.402Z,79.00
2017-08-08T02:40:46.959Z,79.30
2017-08-08T02:43:14.479Z,79.20
2017-08-08T02:45:41.984Z,79.20
2017-08-08T02:48:10.351Z,78.70
2017-08-08T02:50:37.856Z,78.10
2017-08-08T02:53:05.363Z,78.50
2017-08-08T02:55:33.244Z,78.50
2017-08-08T02:58:00.747Z,79.20
2017-08-08T03:00:28.264Z,78.90
2017-08-08T03:02:56.224Z,79.10
2017-08-08T03:05:23.779Z,78.90
2017-08-08T03:07:51.770Z,80.30
2017-08-08T03:10:19.292Z,79.80
2017-08-08T03:12:46.796Z,79.70
2017-08-08T03:15:14.323Z,80.30
2017-08-08T03:17:41.822Z,80.40
2017-08-08T03:20:09.432Z,80.10
2017-08-08T03:22:36.943Z,80.20
2017-08-08T03:25:04.456Z,79.70
2017-08-08T03:27:31.977Z,79.00
2017-08-08T03:29:59.573Z,79.40
2017-08-08T03:32:27.098Z,78.90
2017-08-08T03:34:55.362Z,80.20
2017-08-08T03:37:22.880Z,79.90
2017-08-08T03:39:50.388Z,79.90
2017-08-08T03:42:17.907Z,79.80
2017-08-08T03:44:45.424Z,79.20
2017-08-08T03:47:12.942Z,79.30
2017-08-08T03:49:40.443Z,79.70
2017-08-08T03:52:08.536Z,79.60
2017-08-08T03:54:36.039Z,79.80
2017-08-08T03:57:03.664Z,79.70
2017-08-08T03:59:31.198Z,80.00
2017-08-08T04:01:58.723Z,80.50
2017-08-08T04:04:27.295Z,81.60
2017-08-08T04:06:54.832Z,81.10
2017-08-08T04:09:22.360Z,81.40
2017-08-08T04:11:50.635Z,81.40
2017-08-08T04:14:18.163Z,80.80
2017-08-08T04:16:46.435Z,81.70
2017-08-08T04:19:14.727Z,81.60
2017-08-08T04:21:42.998Z,81.40
2017-08-08T04:24:11.294Z,80.70
2017-08-08T04:26:38.800Z,80.50
2017-08-08T04:29:06.719Z,80.30
2017-08-08T04:31:34.235Z,79.40
2017-08-08T04:34:01.756Z,79.70
2017-08-08T04:36:29.388Z,80.10
2017-08-08T04:38:56.926Z,81.10
2017-08-08T04:41:24.514Z,80.90
2017-08-08T04:43:52.023Z,80.60
2017-08-08T04:46:19.636Z,80.50
2017-08-08T04:48:47.196Z,80.30
2017-08-08T04:51:14.751Z,79.60
2017-08-08T04:53:42.263Z,79.60
2017-08-08T04:56:09.872Z,80.40
2017-08-08T04:58:37.427Z,80.90
2017-08-08T05:01:04.943Z,81.50
2017-08-08T05:03:32.444Z,81.30
2017-08-08T05:05:59.971Z,81.80
2017-08-08T05:08:27.563Z,80.80
2017-08-08T05:10:55.090Z,80.30
2017-08-08T05:13:23.371Z,79.20
2017-08-08T05:15:51.777Z,79.60
2017-08-08T05:18:19.284Z,78.70
2017-08-08T05:20:46.895Z,79.10
2017-08-08T05:23:14.414Z,79.40
2017-08-08T05:25:41.928Z,80.00
2017-08-08T05:28:09.448Z,79.20
2017-08-08T05:30:37.728Z,79.90
2017-08-08T05:33:06.016Z,79.20
2017-08-08T05:35:33.580Z,79.00
2017-08-08T05:38:01.107Z,79.20
2017-08-08T05:40:29.371Z,79.80
2017-08-08T05:42:56.998Z,78.90
2017-08-08T05:45:24.509Z,79.40
2017-08-08T05:47:53.534Z,78.80
2017-08-08T05:50:21.450Z,78.80
2017-08-08T05:52:48.962Z,80.10
2017-08-08T05:55:16.480Z,79.70
2017-08-08T05:57:44.783Z,79.60
2017-08-08T06:00:12.628Z,78.60
2017-08-08T06:02:40.923Z,78.40
2017-08-08T06:05:08.447Z,78.40
2017-08-08T06:07:36.048Z,78.70
2017-08-08T06:10:03.868Z,77.40
2017-08-08T06:12:31.367Z,77.90
2017-08-08T06:14:58.882Z,78.00
2017-08-08T06:17:26.478Z,77.90
2017-08-08T06:19:54.052Z,77.80
2017-08-08T06:22:21.555Z,77.70
2017-08-08T06:24:49.164Z,79.70
2017-08-08T06:27:16.679Z,78.90
2017-08-08T06:29:44.288Z,80.40
2017-08-08T06:32:11.817Z,78.60
2017-08-08T06:34:40.091Z,76.90
2017-08-08T06:37:08.378Z,76.70
2017-08-08T06:39:35.888Z,75.80
2017-08-08T06:42:03.507Z,77.90
2017-08-08T06:44:31.015Z,76.40
2017-08-08T06:46:58.527Z,77.50
2017-08-08T06:49:26.083Z,74.60
2017-08-08T06:51:53.644Z,74.30
2017-08-08T06:54:21.672Z,73.80
2017-08-08T06:56:49.211Z,72.90
2017-08-08T06:59:16.710Z,74.60
2017-08-08T07:01:45.007Z,74.40
2017-08-08T07:04:12.562Z,74.40
2017-08-08T07:06:40.121Z,73.10
2017-08-08T07:09:07.683Z,74.00
2017-08-08T07:11:35.193Z,71.20
2017-08-08T07:14:02.804Z,71.40
2017-08-08T07:16:30.827Z,70.20
2017-08-08T07:18:58.422Z,69.70
2017-08-08T07:21:25.926Z,70.10
2017-08-08T07:23:53.446Z,69.50
2017-08-08T07:26:20.946Z,70.70
2017-08-08T07:28:48.564Z,70.90
2017-08-08T07:31:16.087Z,70.70
2017-08-08T07:33:44.132Z,71.50
2017-08-08T07:36:11.651Z,71.90
2017-08-08T07:38:39.211Z,73.00
2017-08-08T07:41:06.771Z,72.00
2017-08-08T07:43:34.266Z,70.90
2017-08-08T07:46:01.783Z,71.80
2017-08-08T07:48:29.282Z,71.00
2017-08-08T07:50:56.810Z,69.90
2017-08-08T07:53:24.311Z,69.80
2017-08-08T07:55:51.827Z,69.70
2017-08-08T07:58:19.326Z,69.80
2017-08-08T08:00:46.926Z,70.50
2017-08-08T08:03:14.422Z,70.00
2017-08-08T08:05:41.942Z,72.00
2017-08-08T08:08:09.502Z,73.30
2017-08-08T08:10:37.767Z,72.40
2017-08-08T08:13:06.058Z,72.60
2017-08-08T08:15:33.611Z,72.60
2017-08-08T08:18:01.130Z,73.20
2017-08-08T08:20:28.631Z,70.50
2017-08-08T08:22:56.168Z,69.20
2017-08-08T08:25:25.151Z,69.20
2017-08-08T08:27:52.703Z,69.10
2017-08-08T08:30:20.304Z,68.20
2017-08-08T08:32:47.859Z,68.70
2017-08-08T08:35:15.357Z,67.10
2017-08-08T08:37:42.984Z,68.70
2017-08-08T08:40:10.534Z,68.30
2017-08-08T08:42:38.098Z,70.40
2017-08-08T08:45:05.602Z,68.80
2017-08-08T08:47:33.099Z,68.80
2017-08-08T08:50:00.666Z,69.60
2017-08-08T08:52:28.170Z,68.40
2017-08-08T08:54:55.686Z,68.80
2017-08-08T08:57:23.195Z,68.70
2017-08-08T08:59:50.712Z,68.60
2017-08-08T09:02:18.268Z,68.90
2017-08-08T09:04:45.786Z,70.00
2017-08-08T09:07:13.287Z,70.20
2017-08-08T09:09:40.803Z,71.10
2017-08-08T09:12:09.079Z,71.80
2017-08-08T09:14:37.373Z,70.70
2017-08-08T09:17:04.912Z,69.70
2017-08-08T09:19:32.498Z,70.20
2017-08-08T09:22:00.063Z,70.10
2017-08-08T09:24:27.562Z,70.70
2017-08-08T09:26:55.175Z,72.20
2017-08-08T09:29:22.743Z,71.80
2017-08-08T09:31:50.610Z,71.60
2017-08-08T09:34:18.111Z,72.70
2017-08-08T09:36:45.626Z,71.20
2017-08-08T09:39:13.186Z,70.00
2017-08-08T09:41:41.048Z,72.20
2017-08-08T09:44:08.546Z,72.80
2017-08-08T09:46:36.062Z,71.80
2017-08-08T09:49:03.567Z,71.80
2017-08-08T09:51:31.098Z,70.50
2017-08-08T09:53:59.371Z,71.20
2017-08-08T09:56:26.871Z,68.50
2017-08-08T09:58:54.468Z,65.90
2017-08-08T10:01:21.966Z,65.50
2017-08-08T10:03:49.478Z,64.80
2017-08-08T10:06:16.979Z,65.80
2017-08-08T10:08:44.497Z,65.40
2017-08-08T10:11:12.063Z,69.30
2017-08-08T10:13:39.591Z,70.20
2017-08-08T10:16:07.894Z,70.50
2017-08-08T10:18:35.454Z,70.20
2017-08-08T10:21:03.931Z,69.00
2017-08-08T10:23:31.498Z,70.10
2017-08-08T10:25:58.998Z,67.20
2017-08-08T10:28:26.499Z,67.30
2017-08-08T10:30:54.779Z,62.50
2017-08-08T10:33:22.351Z,62.50
2017-08-08T10:35:49.903Z,60.50
2017-08-08T10:38:17.563Z,61.80
2017-08-08T10:40:45.124Z,62.60
2017-08-08T10:43:12.631Z,63.40
2017-08-08T10:45:40.145Z,62.70
2017-08-08T10:48:07.642Z,60.70
2017-08-08T10:50:35.259Z,59.40
2017-08-08T10:53:02.763Z,59.70
2017-08-08T10:55:30.258Z,60.80
2017-08-08T10:57:58.547Z,60.00
2017-08-08T11:00:26.051Z,60.00
2017-08-08T11:02:53.575Z,58.90
2017-08-08T11:05:21.123Z,58.20
2017-08-08T11:07:48.882Z,59.70
2017-08-08T11:10:16.378Z,59.80
2017-08-08T11:12:44.007Z,58.30
2017-08-08T11:15:11.510Z,61.50
2017-08-08T11:17:39.032Z,62.50
2017-08-08T11:20:06.535Z,63.80
2017-08-08T11:22:34.139Z,64.60
2017-08-08T11:25:01.638Z,65.20
2017-08-08T11:27:29.168Z,61.30
2017-08-08T11:29:57.326Z,60.40
2017-08-08T11:32:24.832Z,60.80
2017-08-08T11:34:52.350Z,61.90
2017-08-08T11:37:19.846Z,61.20
2017-08-08T11:39:48.077Z,61.60
2017-08-08T11:42:15.603Z,60.10
2017-08-08T11:44:43.118Z,58.60
2017-08-08T11:47:10.619Z,58.40
2017-08-08T11:49:38.130Z,57.60
2017-08-08T11:52:05.662Z,57.60
2017-08-08T11:54:33.223Z,57.70
2017-08-08T11:57:00.727Z,58.80
2017-08-08T11:59:28.646Z,59.10
2017-08-08T12:01:56.170Z,59.40
2017-08-08T12:04:23.711Z,61.20
2017-08-08T12:06:51.206Z,62.60
2017-08-08T12:09:19.495Z,63.70
2017-08-08T12:11:47.020Z,63.70
2017-08-08T12:14:14.616Z,65.10
2017-08-08T12:16:42.621Z,66.30
2017-08-08T12:19:10.145Z,65.30
2017-08-08T12:21:37.702Z,66.20
2017-08-08T12:24:05.267Z,63.60
2017-08-08T12:26:32.785Z,63.30
2017-08-08T12:29:00.288Z,64.90
2017-08-08T12:31:27.843Z,62.70
2017-08-08T12:33:55.347Z,60.90
2017-08-08T12:36:22.960Z,61.10
2017-08-08T12:38:50.462Z,61.10
2017-08-08T12:41:17.979Z,59.90
2017-08-08T12:43:45.545Z,59.70
2017-08-08T12:46:13.051Z,59.20
2017-08-08T12:48:40.572Z,59.20
2017-08-08T12:51:08.071Z,59.10
2017-08-08T12:53:35.658Z,59.80
2017-08-08T12:56:03.218Z,59.60
2017-08-08T12:58:30.739Z,61.00
2017-08-08T13:00:58.954Z,61.90
2017-08-08T13:03:26.516Z,62.60
2017-08-08T13:05:54.075Z,61.60
2017-08-08T13:08:21.610Z,60.90
2017-08-08T13:10:49.874Z,61.40
2017-08-08T13:13:17.470Z,61.30
2017-08-08T13:15:44.983Z,60.80
2017-08-08T13:18:12.482Z,60.80
2017-08-08T13:20:39.998Z,62.00
2017-08-08T13:23:07.495Z,62.40
2017-08-08T13:25:35.012Z,61.00
2017-08-08T13:28:02.511Z,62.90
2017-08-08T13:30:30.032Z,62.50
2017-08-08T13:32:58.478Z,63.80
2017-08-08T13:35:25.995Z,62.90
2017-08-08T13:37:53.507Z,63.30
2017-08-08T13:40:21.023Z,63.80
2017-08-08T13:42:48.995Z,65.50
2017-08-08T13:45:16.822Z,67.50
2017-08-08T13:47:44.343Z,68.90
2017-08-08T13:50:11.874Z,68.70
2017-08-08T13:52:39.634Z,68.20
2017-08-08T13:55:07.127Z,68.40
2017-08-08T13:57:35.303Z,68.30
2017-08-08T14:00:02.827Z,69.10
2017-08-08T14:02:30.345Z,69.00
2017-08-08T14:04:57.842Z,69.60
2017-08-08T14:07:25.403Z,70.10
2017-08-08T14:09:52.964Z,69.80
2017-08-08T14:12:20.519Z,70.50
2017-08-08T14:14:48.391Z,69.70
2017-08-08T14:17:15.915Z,69.90
2017-08-08T14:19:43.415Z,70.30
2017-08-08T14:22:10.962Z,70.10
2017-08-08T14:24:38.465Z,70.30
2017-08-08T14:27:05.966Z,69.90
2017-08-08T14:29:34.242Z,70.70
2017-08-08T14:32:02.535Z,70.80
2017-08-08T14:34:30.051Z,70.80
2017-08-08T14:36:57.653Z,70.80
2017-08-08T14:39:25.211Z,71.00
2017-08-08T14:41:52.866Z,70.90
2017-08-08T14:44:20.382Z,70.90
2017-08-08T14:46:47.983Z,71.30
2017-08-08T14:49:15.502Z,70.30
2017-08-08T14:51:43.527Z,70.80
2017-08-08T14:54:11.049Z,71.00
2017-08-08T14:56:39.735Z,71.50
2017-08-08T14:59:08.130Z,72.00
2017-08-08T15:01:35.845Z,71.90
2017-08-08T15:04:03.342Z,72.20
2017-08-08T15:06:31.644Z,72.10
2017-08-08T15:08:59.147Z,72.00
2017-08-08T15:11:26.747Z,71.90
2017-08-08T15:13:54.251Z,71.90
2017-08-08T15:16:21.762Z,72.50
2017-08-08T15:18:49.953Z,72.30
2017-08-08T15:21:17.501Z,72.50
2017-08-08T15:23:45.008Z,72.40
2017-08-08T15:26:12.632Z,72.10
2017-08-08T15:28:40.136Z,72.40
2017-08-08T15:31:07.668Z,72.40
2017-08-08T15:33:35.187Z,72.20
2017-08-08T15:36:02.690Z,72.00
2017-08-08T15:38:30.302Z,72.00
2017-08-08T15:40:57.807Z,71.70
2017-08-08T15:43:25.326Z,71.60
2017-08-08T15:45:53.486Z,71.30
2017-08-08T15:48:21.767Z,71.30
2017-08-08T15:50:49.336Z,71.20
2017-08-08T15:53:16.851Z,70.50
2017-08-08T15:55:44.351Z,69.80
2017-08-08T15:58:11.871Z,67.10
2017-08-08T16:00:39.383Z,64.30
2017-08-08T16:03:06.894Z,61.60
2017-08-08T16:05:35.163Z,58.60
2017-08-08T16:08:02.759Z,58.20
2017-08-08T16:10:30.974Z,58.00
2017-08-08T16:12:58.475Z,58.30
2017-08-08T16:15:26.756Z,59.90
2017-08-08T16:17:54.259Z,59.90
2017-08-08T16:20:22.147Z,60.40
2017-08-08T16:22:49.754Z,61.80
2017-08-08T16:25:17.274Z,62.80
2017-08-08T16:27:44.872Z,63.70
2017-08-08T16:30:12.423Z,64.20
2017-08-08T16:32:39.927Z,65.00
2017-08-08T16:35:07.450Z,66.00
2017-08-08T16:37:34.952Z,66.40
2017-08-08T16:40:02.555Z,66.80
2017-08-08T16:42:30.059Z,67.30
2017-08-08T16:44:57.564Z,68.00
2017-08-08T16:47:25.134Z,67.90
2017-08-08T16:49:53.258Z,68.10
2017-08-08T16:52:20.775Z,68.40
2017-08-08T16:54:48.279Z,68.00
2017-08-08T16:57:15.796Z,67.50
2017-08-08T16:59:43.299Z,67.70
2017-08-08T17:02:10.894Z,67.50
2017-08-08T17:04:38.455Z,68.10
2017-08-08T17:07:06.019Z,68.00
2017-08-08T17:09:33.514Z,68.30
2017-08-08T17:12:01.022Z,68.70
2017-08-08T17:14:29.306Z,69.30
2017-08-08T17:16:56.807Z,69.30
2017-08-08T17:19:25.163Z,69.10
2017-08-08T17:21:52.658Z,68.90
2017-08-08T17:24:20.180Z,68.60
2017-08-08T17:26:47.714Z,69.40
2017-08-08T17:29:15.243Z,68.90
2017-08-08T17:31:42.744Z,69.50
2017-08-08T17:34:10.854Z,68.90
2017-08-08T17:36:38.377Z,69.40
2017-08-08T17:39:05.887Z,69.00
2017-08-08T17:41:33.415Z,69.10
2017-08-08T17:44:01.251Z,69.40
2017-08-08T17:46:28.819Z,69.70
2017-08-08T17:48:56.327Z,69.60
2017-08-08T17:51:23.854Z,70.10
2017-08-08T17:53:51.350Z,70.10
2017-08-08T17:56:19.635Z,68.80
2017-08-08T17:58:47.903Z,67.60
2017-08-08T18:01:16.187Z,67.90
2017-08-08T18:03:44.579Z,67.80
2017-08-08T18:06:12.838Z,67.40
2017-08-08T18:08:41.129Z,67.20
2017-08-08T18:11:09.132Z,67.20
2017-08-08T18:13:36.636Z,67.50
2017-08-08T18:16:04.898Z,68.50
2017-08-08T18:18:32.423Z,68.40
2017-08-08T18:20:59.929Z,68.80
2017-08-08T18:23:28.210Z,69.30
2017-08-08T18:25:56.475Z,69.50
2017-08-08T18:28:24.753Z,70.30
2017-08-08T18:30:53.029Z,69.80
2017-08-08T18:33:21.326Z,69.30
2017-08-08T18:35:48.823Z,69.30
2017-08-08T18:38:16.351Z,69.40
2017-08-08T18:40:43.846Z,69.40
2017-08-08T18:43:11.362Z,69.60
2017-08-08T18:45:38.862Z,69.70
2017-08-08T18:48:06.362Z,69.70
2017-08-08T18:50:34.651Z,70.00
2017-08-08T18:53:02.150Z,70.00
2017-08-08T18:55:29.668Z,70.10
2017-08-08T18:57:57.190Z,70.20
2017-08-08T19:00:24.714Z,70.10
2017-08-08T19:02:52.242Z,70.30
2017-08-08T19:05:19.763Z,70.10
2017-08-08T19:07:47.264Z,70.30
2017-08-08T19:10:14.787Z,70.40
2017-08-08T19:12:42.291Z,70.80
2017-08-08T19:15:10.593Z,70.80
2017-08-08T19:17:38.094Z,70.80
2017-08-08T19:20:06.358Z,70.80
2017-08-08T19:22:34.666Z,71.10
2017-08-08T19:25:02.174Z,70.40
2017-08-08T19:27:29.851Z,70.60
2017-08-08T19:29:57.353Z,70.50
2017-08-08T19:32:24.871Z,70.00
2017-08-08T19:34:53.178Z,70.70
2017-08-08T19:37:21.138Z,69.90
2017-08-08T19:39:48.682Z,69.70
2017-08-08T19:42:16.962Z,69.50
2017-08-08T19:44:45.236Z,69.50
2017-08-08T19:47:13.558Z,69.40
2017-08-08T19:49:41.062Z,69.40
2017-08-08T19:52:09.326Z,69.40
2017-08-08T19:54:36.924Z,69.40
2017-08-08T19:57:04.433Z,69.50
2017-08-08T19:59:31.948Z,69.70
2017-08-08T20:01:59.443Z,69.60
2017-08-08T20:04:26.965Z,69.40
2017-08-08T20:06:54.767Z,69.50
2017-08-08T20:09:22.375Z,69.80
2017-08-08T20:11:49.874Z,69.80
2017-08-08T20:14:17.386Z,70.30
2017-08-08T20:16:45.166Z,70.00
2017-08-08T20:19:12.714Z,70.20
2017-08-08T20:21:40.274Z,70.50
2017-08-08T20:24:07.819Z,70.50
2017-08-08T20:26:36.090Z,70.80
2017-08-08T20:29:04.355Z,70.90
2017-08-08T20:31:31.871Z,70.90
2017-08-08T20:33:59.374Z,71.00
2017-08-08T20:36:27.651Z,70.90
2017-08-08T20:38:55.922Z,71.40
2017-08-08T20:41:23.505Z,71.40
2017-08-08T20:43:51.071Z,71.30
2017-08-08T20:46:18.590Z,71.40
2017-08-08T20:48:46.203Z,71.50
2017-08-08T20:51:13.754Z,71.70
2017-08-08T20:53:41.255Z,71.70
2017-08-08T20:56:08.765Z,72.00
2017-08-08T20:58:36.478Z,71.70
2017-08-08T21:01:04.091Z,71.60
2017-08-08T21:03:31.646Z,71.70
2017-08-08T21:05:59.150Z,71.80
2017-08-08T21:08:26.658Z,72.00
2017-08-08T21:10:54.219Z,72.20
2017-08-08T21:13:21.782Z,72.30
2017-08-08T21:15:49.279Z,72.40
2017-08-08T21:18:16.794Z,72.70
2017-08-08T21:20:44.578Z,72.70
2017-08-08T21:23:12.090Z,72.60
2017-08-08T21:25:40.395Z,72.70
2017-08-08T21:28:07.955Z,72.70
2017-08-08T21:30:35.515Z,72.50
2017-08-08T21:33:03.037Z,72.50
2017-08-08T21:35:30.627Z,72.70
2017-08-08T21:37:58.156Z,72.70
2017-08-08T21:40:25.744Z,72.70
2017-08-08T21:42:53.527Z,72.80
2017-08-08T21:45:21.071Z,73.00
2017-08-08T21:47:48.726Z,73.20
2017-08-08T21:50:16.248Z,73.00
2017-08-08T21:52:44.030Z,73.10
2017-08-08T21:55:12.340Z,73.40
2017-08-08T21:57:39.847Z,73.30
2017-08-08T22:00:07.452Z,73.40
2017-08-08T22:02:34.954Z,73.50
2017-08-08T22:05:02.466Z,73.80
2017-08-08T22:07:29.971Z,73.70
2017-08-08T22:09:57.492Z,73.90
2017-08-08T22:12:25.490Z,74.20
2017-08-08T22:14:53.020Z,74.10
2017-08-08T22:17:20.569Z,74.10
2017-08-08T22:19:48.078Z,74.60
2017-08-08T22:22:15.591Z,75.00
2017-08-08T22:24:43.144Z,74.80
2017-08-08T22:27:11.079Z,74.80
2017-08-08T22:29:39.381Z,75.40
2017-08-08T22:32:06.943Z,75.30
2017-08-08T22:34:34.448Z,75.70
2017-08-08T22:37:01.958Z,75.90
2017-08-08T22:39:29.459Z,76.10
2017-08-08T22:41:57.154Z,76.10
2017-08-08T22:44:25.803Z,76.60
2017-08-08T22:46:53.299Z,76.50
2017-08-08T22:49:21.599Z,76.50
2017-08-08T22:51:49.099Z,76.50
2017-08-08T22:54:16.614Z,76.50
2017-08-08T22:56:44.498Z,77.20
2017-08-08T22:59:12.043Z,76.80
2017-08-08T23:01:39.541Z,76.90
2017-08-08T23:04:07.159Z,77.10
2017-08-08T23:06:34.663Z,77.00
2017-08-08T23:09:02.178Z,77.00
2017-08-08T23:11:30.343Z,77.00
2017-08-08T23:13:57.907Z,77.30
2017-08-08T23:16:25.467Z,77.40
2017-08-08T23:18:53.027Z,78.00
2017-08-08T23:21:20.578Z,77.80
2017-08-08T23:23:48.095Z,77.80
2017-08-08T23:26:15.599Z,77.60
2017-08-08T23:28:43.108Z,77.80
2017-08-08T23:31:10.714Z,77.70
2017-08-08T23:33:38.279Z,77.30
2017-08-08T23:36:06.152Z,77.30
2017-08-08T23:38:33.802Z,77.70
2017-08-08T23:41:01.365Z,78.10
2017-08-08T23:43:28.858Z,78.70
2017-08-08T23:45:56.374Z,79.50
2017-08-08T23:48:23.875Z,79.30
2017-08-08T23:50:51.395Z,79.50
2017-08-08T23:53:18.890Z,80.00
2017-08-08T23:55:46.402Z,80.20
2017-08-08T23:58:13.898Z,79.20
